createdAt,value
2022-08-17T00:02:31.334Z,100644.09
2022-08-17T00:05:17.141Z,100641.81
2022-08-17T00:08:12.533Z,100645.69
2022-08-17T00:11:11.874Z,100640.75
2022-08-17T00:14:09.200Z,100651.59
2022-08-17T00:16:58.355Z,100644.19
2022-08-17T00:19:43.929Z,100637.59
2022-08-17T00:22:34.290Z,100652.94
2022-08-17T00:25:46.593Z,100646.16
2022-08-17T00:33:13.602Z,100654.59
2022-08-17T00:35:22.308Z,100657.69
2022-08-17T00:38:10.118Z,100651.34
2022-08-17T00:40:50.515Z,100666.97
2022-08-17T00:43:36.276Z,100646.66
2022-08-17T00:46:15.751Z,100650.97
2022-08-17T00:49:41.435Z,100652.19
2022-08-17T00:52:12.149Z,100644.38
2022-08-17T00:58:09.147Z,100650.28
2022-08-17T01:00:45.994Z,100650.47
2022-08-17T01:03:21.675Z,100644.69
2022-08-17T01:05:59.786Z,100652.06
2022-08-17T01:08:35.022Z,100651.81
2022-08-17T01:11:05.958Z,100653.88
2022-08-17T01:13:43.454Z,100655.88
2022-08-17T01:16:27.093Z,100654.44
2022-08-17T01:19:09.081Z,100658.09
2022-08-17T01:21:49.738Z,100660.31
2022-08-17T01:24:39.737Z,100665.22
2022-08-17T01:27:20.573Z,100667.44
2022-08-17T01:30:58.276Z,100666.16
2022-08-17T01:33:20.951Z,100667.81
2022-08-17T01:35:54.041Z,100668.19
2022-08-17T01:38:45.155Z,100672.72
2022-08-17T01:41:32.333Z,100677.38
2022-08-17T01:44:11.194Z,100683.06
2022-08-17T01:46:45.408Z,100675.66
2022-08-17T01:49:47.438Z,100680.31
2022-08-17T01:52:44.068Z,100684.38
2022-08-17T01:58:55.318Z,100684.88
2022-08-17T02:01:55.042Z,100685.41
2022-08-17T02:04:53.233Z,100691.13
2022-08-17T02:07:32.907Z,100686.56
2022-08-17T02:10:33.920Z,100690.78
2022-08-17T02:13:11.563Z,100683.16
2022-08-17T02:15:48.027Z,100678.78
2022-08-17T02:18:33.596Z,100684.28
2022-08-17T02:21:10.250Z,100679.31
2022-08-17T02:24:01.635Z,100674.38
2022-08-17T02:26:37.039Z,100679.06
2022-08-17T02:29:08.653Z,100687.59
2022-08-17T02:31:49.991Z,100682.63
2022-08-17T02:34:27.268Z,100684.66
2022-08-17T02:39:55.667Z,100678.03
2022-08-17T02:42:45.889Z,100670.44
2022-08-17T02:45:49.417Z,100669.59
2022-08-17T02:48:31.621Z,100671.44
2022-08-17T02:51:12.765Z,100670.78
2022-08-17T02:56:58.912Z,100670.97
2022-08-17T02:59:49.139Z,100677.28
2022-08-17T03:02:22.049Z,100679.94
2022-08-17T03:05:12.406Z,100675.44
2022-08-17T03:07:52.616Z,100677.28
2022-08-17T03:10:43.343Z,100677.47
2022-08-17T03:13:23.005Z,100672.50
2022-08-17T03:15:56.495Z,100670.88
2022-08-17T03:18:35.341Z,100669.38
2022-08-17T03:21:24.592Z,100666.28
2022-08-17T03:23:57.429Z,100668.28
2022-08-17T03:26:33.748Z,100670.28
2022-08-17T03:29:11.509Z,100666.34
2022-08-17T03:32:10.951Z,100666.53
2022-08-17T03:34:49.029Z,100671.41
2022-08-17T03:37:29.865Z,100671.59
2022-08-17T03:40:18.442Z,100672.56
2022-08-17T03:46:28.691Z,100664.50
2022-08-17T03:49:31.286Z,100664.69
2022-08-17T03:52:30.010Z,100663.03
2022-08-17T03:55:35.819Z,100661.56
2022-08-17T03:58:18.557Z,100666.88
2022-08-17T04:00:57.564Z,100667.88
2022-08-17T04:06:31.640Z,100682.19
2022-08-17T04:09:02.852Z,100671.56
2022-08-17T04:11:32.470Z,100673.41
2022-08-17T04:14:00.910Z,100676.88
2022-08-17T04:16:29.803Z,100679.53
2022-08-17T04:18:57.811Z,100670.53
2022-08-17T04:21:25.630Z,100677.88
2022-08-17T04:23:53.633Z,100684.22
2022-08-17T04:26:52.761Z,100686.03
2022-08-17T04:29:12.482Z,100687.88
2022-08-17T04:31:40.379Z,100677.41
2022-08-17T04:34:08.316Z,100679.44
2022-08-17T04:36:36.693Z,100688.22
2022-08-17T04:39:05.289Z,100686.56
2022-08-17T04:41:50.715Z,100694.53
2022-08-17T04:44:28.298Z,100690.25
2022-08-17T04:47:07.203Z,100697.41
2022-08-17T04:49:38.493Z,100691.88
2022-08-17T04:52:06.478Z,100697.00
2022-08-17T04:54:34.540Z,100693.19
2022-08-17T04:57:02.448Z,100700.00
2022-08-17T04:59:31.660Z,100691.63
2022-08-17T05:01:59.751Z,100697.63
2022-08-17T05:04:34.658Z,100696.22
2022-08-17T05:07:03.333Z,100695.88
2022-08-17T05:09:31.717Z,100705.97
2022-08-17T05:12:01.926Z,100705.63
2022-08-17T05:14:33.521Z,100707.72
2022-08-17T05:17:01.759Z,100704.50
2022-08-17T05:19:34.904Z,100714.63
2022-08-17T05:22:06.200Z,100712.22
2022-08-17T05:24:42.684Z,100723.00
2022-08-17T05:27:19.096Z,100727.78
2022-08-17T05:29:48.632Z,100726.13
2022-08-17T05:32:38.675Z,100734.09
2022-08-17T05:35:05.073Z,100735.59
2022-08-17T05:37:33.341Z,100735.84
2022-08-17T05:40:01.516Z,100733.91
2022-08-17T05:42:29.372Z,100733.84
2022-08-17T05:44:59.895Z,100739.06
2022-08-17T05:47:28.814Z,100736.66
2022-08-17T05:49:56.961Z,100734.56
2022-08-17T05:52:39.213Z,100747.59
2022-08-17T05:55:19.123Z,100751.25
2022-08-17T05:58:02.377Z,100744.25
2022-08-17T06:00:42.109Z,100741.81
2022-08-17T06:03:39.496Z,100740.59
2022-08-17T06:06:18.686Z,100735.09
2022-08-17T06:09:13.106Z,100745.34
2022-08-17T06:11:53.555Z,100740.59
2022-08-17T06:14:39.442Z,100739.50
2022-08-17T06:17:13.843Z,100745.19
2022-08-17T06:19:48.309Z,100747.13
2022-08-17T06:22:19.451Z,100751.94
2022-08-17T06:24:51.744Z,100750.56
2022-08-17T06:27:27.790Z,100750.16
2022-08-17T06:30:03.048Z,100753.06
2022-08-17T06:32:32.478Z,100754.09
2022-08-17T06:35:02.956Z,100749.75
2022-08-17T06:37:51.544Z,100753.41
2022-08-17T06:40:30.436Z,100752.50
2022-08-17T06:43:14.471Z,100746.34
2022-08-17T06:45:49.354Z,100749.19
2022-08-17T06:48:25.541Z,100759.06
2022-08-17T06:51:00.222Z,100759.56
2022-08-17T06:53:33.007Z,100765.03
2022-08-17T06:56:06.183Z,100759.81
2022-08-17T06:58:35.811Z,100772.47
2022-08-17T07:01:10.803Z,100764.41
2022-08-17T07:03:47.740Z,100763.56
2022-08-17T07:06:18.391Z,100771.88
2022-08-17T07:08:53.926Z,100761.81
2022-08-17T07:11:28.083Z,100758.00
2022-08-17T07:14:05.395Z,100766.13
2022-08-17T07:16:41.177Z,100768.00
2022-08-17T07:19:11.269Z,100765.66
2022-08-17T07:21:47.715Z,100772.50
2022-08-17T07:24:33.145Z,100762.22
2022-08-17T07:27:21.540Z,100763.28
2022-08-17T07:29:54.693Z,100768.81
2022-08-17T07:32:25.752Z,100759.94
2022-08-17T07:35:13.012Z,100766.69
2022-08-17T07:37:46.185Z,100769.47
2022-08-17T07:40:21.573Z,100770.25
2022-08-17T07:43:06.742Z,100777.63
2022-08-17T07:45:53.078Z,100786.44
2022-08-17T07:48:23.378Z,100780.00
2022-08-17T07:50:53.405Z,100786.56
2022-08-17T07:53:24.246Z,100788.66
2022-08-17T07:55:54.072Z,100783.06
2022-08-17T07:58:24.558Z,100781.81
2022-08-17T08:01:09.314Z,100780.78
2022-08-17T08:03:43.611Z,100779.34
2022-08-17T08:06:23.176Z,100789.22
2022-08-17T08:08:56.785Z,100775.22
2022-08-17T08:11:33.589Z,100782.44
2022-08-17T08:14:28.298Z,100781.44
2022-08-17T08:17:00.147Z,100780.97
2022-08-17T08:19:29.320Z,100781.47
2022-08-17T08:22:06.157Z,100782.94
2022-08-17T08:24:55.730Z,100794.03
2022-08-17T08:27:37.294Z,100797.03
2022-08-17T08:30:10.286Z,100796.34
2022-08-17T08:32:57.755Z,100799.34
2022-08-17T08:35:32.439Z,100795.47
2022-08-17T08:38:09.335Z,100793.81
2022-08-17T08:40:50.501Z,100786.94
2022-08-17T08:43:28.116Z,100789.03
2022-08-17T08:46:08.950Z,100784.47
2022-08-17T08:48:58.725Z,100779.19
2022-08-17T08:51:43.469Z,100776.31
2022-08-17T08:54:26.640Z,100779.94
2022-08-17T09:00:12.875Z,100778.53
2022-08-17T09:02:57.496Z,100776.00
2022-08-17T09:05:40.345Z,100776.94
2022-08-17T09:08:20.750Z,100775.78
2022-08-17T09:11:00.953Z,100769.78
2022-08-17T09:13:38.325Z,100789.34
2022-08-17T09:16:15.371Z,100786.38
2022-08-17T09:19:02.770Z,100777.72
2022-08-17T09:21:45.784Z,100775.13
2022-08-17T09:24:24.065Z,100766.81
2022-08-17T09:26:59.999Z,100767.06
2022-08-17T09:29:35.210Z,100771.97
2022-08-17T09:32:10.662Z,100765.06
2022-08-17T09:34:47.085Z,100768.31
2022-08-17T09:37:22.826Z,100759.78
2022-08-17T09:39:59.284Z,100769.53
2022-08-17T09:42:33.659Z,100766.69
2022-08-17T09:45:15.448Z,100767.44
2022-08-17T09:47:51.188Z,100775.41
2022-08-17T09:51:04.849Z,100770.00
2022-08-17T09:53:12.517Z,100770.28
2022-08-17T09:55:53.119Z,100771.59
2022-08-17T09:58:30.525Z,100773.38
2022-08-17T10:01:04.212Z,100766.25
2022-08-17T10:03:57.321Z,100762.59
2022-08-17T10:06:31.855Z,100752.84
2022-08-17T10:09:08.430Z,100751.44
2022-08-17T10:11:57.706Z,100749.72
2022-08-17T10:14:37.803Z,100746.16
2022-08-17T10:17:22.564Z,100741.34
2022-08-17T10:19:59.701Z,100745.53
2022-08-17T10:22:55.031Z,100741.72
2022-08-17T10:25:54.715Z,100744.78
2022-08-17T10:28:30.239Z,100739.94
2022-08-17T10:31:33.846Z,100747.69
2022-08-17T10:34:11.862Z,100760.00
2022-08-17T10:36:50.260Z,100758.44
2022-08-17T10:39:31.610Z,100746.94
2022-08-17T10:42:06.120Z,100740.41
2022-08-17T10:44:47.983Z,100741.97
2022-08-17T10:47:19.264Z,100744.75
2022-08-17T10:49:49.634Z,100743.97
2022-08-17T10:52:50.091Z,100737.94
2022-08-17T10:55:20.513Z,100736.13
2022-08-17T10:57:50.718Z,100741.84
2022-08-17T11:01:02.276Z,100749.03
2022-08-17T11:03:33.041Z,100746.09
2022-08-17T11:06:09.528Z,100741.44
2022-08-17T11:09:15.478Z,100743.56
2022-08-17T11:12:11.089Z,100736.38
2022-08-17T11:14:54.737Z,100730.22
2022-08-17T11:17:41.873Z,100716.56
2022-08-17T11:20:30.747Z,100722.78
2022-08-17T11:23:30.806Z,100724.13
2022-08-17T11:26:03.953Z,100729.91
2022-08-17T11:28:35.931Z,100723.81
2022-08-17T11:31:09.597Z,100721.44
2022-08-17T11:34:02.221Z,100720.00
2022-08-17T11:36:48.707Z,100717.41
2022-08-17T11:39:32.037Z,100717.69
2022-08-17T11:42:05.981Z,100709.22
2022-08-17T11:44:46.557Z,100705.03
2022-08-17T11:47:38.469Z,100707.25
2022-08-17T11:51:03.655Z,100712.53
2022-08-17T11:54:21.427Z,100703.91
2022-08-17T11:56:49.901Z,100699.81
2022-08-17T11:59:55.932Z,100699.75
2022-08-17T12:02:34.693Z,100693.81
2022-08-17T12:05:26.242Z,100702.53
2022-08-17T12:08:06.467Z,100706.91
2022-08-17T12:10:38.966Z,100695.00
2022-08-17T12:13:12.028Z,100695.13
2022-08-17T12:15:48.719Z,100691.94
2022-08-17T12:18:21.518Z,100692.88
2022-08-17T12:21:05.152Z,100698.06
2022-08-17T12:23:44.163Z,100695.38
2022-08-17T12:26:19.479Z,100699.28
2022-08-17T12:28:50.064Z,100697.56
2022-08-17T12:31:23.237Z,100701.50
2022-08-17T12:33:51.908Z,100704.69
2022-08-17T12:36:24.567Z,100703.09
2022-08-17T12:39:14.441Z,100696.00
2022-08-17T12:41:57.376Z,100698.75
2022-08-17T12:44:30.691Z,100694.59
2022-08-17T12:47:04.666Z,100697.59
2022-08-17T12:49:35.606Z,100698.81
2022-08-17T12:52:09.275Z,100684.56
2022-08-17T12:54:50.907Z,100683.59
2022-08-17T12:57:24.232Z,100683.81
2022-08-17T12:59:58.662Z,100688.22
2022-08-17T13:02:33.580Z,100678.19
2022-08-17T13:05:02.569Z,100665.16
2022-08-17T13:07:35.493Z,100659.63
2022-08-17T13:10:05.014Z,100661.31
2022-08-17T13:12:36.624Z,100658.13
2022-08-17T13:15:05.395Z,100654.88
2022-08-17T13:17:36.249Z,100656.06
2022-08-17T13:20:06.870Z,100659.81
2022-08-17T13:22:34.990Z,100661.22
2022-08-17T13:25:08.540Z,100662.28
2022-08-17T13:27:38.361Z,100654.63
2022-08-17T13:30:12.696Z,100657.09
2022-08-17T13:32:43.919Z,100662.31
2022-08-17T13:35:42.944Z,100650.38
2022-08-17T13:38:17.683Z,100655.84
2022-08-17T13:40:50.447Z,100659.91
2022-08-17T13:43:44.942Z,100668.66
2022-08-17T13:46:19.769Z,100656.44
2022-08-17T13:48:58.620Z,100664.84
2022-08-17T13:51:33.589Z,100659.41
2022-08-17T13:54:20.162Z,100655.88
2022-08-17T13:56:56.045Z,100645.81
2022-08-17T13:59:53.239Z,100656.41
2022-08-17T14:02:25.961Z,100648.78
2022-08-17T14:04:56.967Z,100645.81
2022-08-17T14:07:30.194Z,100658.56
2022-08-17T14:10:01.690Z,100646.88
2022-08-17T14:12:31.806Z,100653.69
2022-08-17T14:15:01.631Z,100650.66
2022-08-17T14:17:36.370Z,100650.41
2022-08-17T14:20:09.684Z,100645.56
2022-08-17T14:22:40.674Z,100648.56
2022-08-17T14:25:10.712Z,100646.94
2022-08-17T14:27:53.268Z,100646.13
2022-08-17T14:30:28.969Z,100644.47
2022-08-17T14:32:58.951Z,100639.03
2022-08-17T14:35:29.278Z,100643.38
2022-08-17T14:37:58.492Z,100641.75
2022-08-17T14:40:27.107Z,100634.72
2022-08-17T14:42:57.843Z,100633.09
2022-08-17T14:45:32.498Z,100641.22
2022-08-17T14:48:02.747Z,100631.72
2022-08-17T14:50:30.713Z,100638.78
2022-08-17T14:53:01.604Z,100637.94
2022-08-17T14:55:30.972Z,100627.91
2022-08-17T14:57:59.116Z,100634.44
2022-08-17T15:00:28.714Z,100633.31
2022-08-17T15:02:59.435Z,100636.88
2022-08-17T15:05:31.526Z,100629.28
2022-08-17T15:08:01.061Z,100620.31
2022-08-17T15:10:29.900Z,100634.41
2022-08-17T15:12:58.876Z,100629.78
2022-08-17T15:15:29.051Z,100630.59
2022-08-17T15:17:57.400Z,100625.72
2022-08-17T15:20:28.896Z,100631.97
2022-08-17T15:22:59.047Z,100629.75
2022-08-17T15:25:29.334Z,100630.28
2022-08-17T15:27:57.413Z,100623.25
2022-08-17T15:30:26.992Z,100623.78
2022-08-17T15:32:58.017Z,100628.13
2022-08-17T15:35:29.123Z,100627.84
2022-08-17T15:38:07.895Z,100625.97
2022-08-17T15:40:36.951Z,100623.78
2022-08-17T15:43:10.893Z,100627.56
2022-08-17T15:45:39.339Z,100625.41
2022-08-17T15:48:09.512Z,100617.81
2022-08-17T15:50:38.005Z,100619.69
2022-08-17T15:53:05.804Z,100622.69
2022-08-17T15:55:34.799Z,100624.03
2022-08-17T15:58:02.773Z,100603.94
2022-08-17T16:00:31.286Z,100611.44
2022-08-17T16:03:46.197Z,100604.59
2022-08-17T16:05:56.846Z,100607.59
2022-08-17T16:08:25.483Z,100606.22
2022-08-17T16:10:53.275Z,100606.75
2022-08-17T16:13:21.342Z,100600.25
2022-08-17T16:15:56.192Z,100607.81
2022-08-17T16:18:31.143Z,100606.19
2022-08-17T16:21:20.514Z,100601.31
2022-08-17T16:23:49.251Z,100604.53
2022-08-17T16:26:18.048Z,100602.63
2022-08-17T16:28:46.407Z,100609.91
2022-08-17T16:31:16.712Z,100612.28
2022-08-17T16:34:16.232Z,100608.97
2022-08-17T16:36:33.465Z,100602.44
2022-08-17T16:39:01.509Z,100594.56
2022-08-17T16:41:44.415Z,100593.16
2022-08-17T16:44:15.525Z,100592.00
2022-08-17T16:46:45.833Z,100597.38
2022-08-17T16:49:35.169Z,100591.34
2022-08-17T16:52:07.393Z,100589.91
2022-08-17T16:54:36.261Z,100592.31
2022-08-17T16:57:05.576Z,100594.38
2022-08-17T16:59:42.162Z,100596.75
2022-08-17T17:02:17.259Z,100594.53
2022-08-17T17:05:02.704Z,100591.22
2022-08-17T17:07:54.954Z,100588.38
2022-08-17T17:10:29.056Z,100586.97
2022-08-17T17:13:01.629Z,100586.59
2022-08-17T17:15:46.193Z,100585.16
2022-08-17T17:18:16.575Z,100588.88
2022-08-17T17:20:55.754Z,100587.75
2022-08-17T17:24:03.991Z,100592.88
2022-08-17T17:27:51.604Z,100596.31
2022-08-17T17:35:05.795Z,100593.13
2022-08-17T17:37:49.374Z,100593.56
2022-08-17T17:40:25.941Z,100594.25
2022-08-17T17:43:34.845Z,100595.84
2022-08-17T17:46:26.740Z,100588.47
2022-08-17T17:48:57.074Z,100591.41
2022-08-17T17:52:07.642Z,100590.06
2022-08-17T17:54:51.639Z,100590.78
2022-08-17T17:57:35.591Z,100592.09
2022-08-17T18:00:14.310Z,100593.69
2022-08-17T18:02:58.560Z,100596.06
2022-08-17T18:05:48.873Z,100593.25
2022-08-17T18:08:32.127Z,100602.66
2022-08-17T18:11:24.151Z,100599.88
2022-08-17T18:14:07.593Z,100605.22
2022-08-17T18:16:35.816Z,100597.84
2022-08-17T18:19:04.400Z,100605.88
2022-08-17T18:21:39.122Z,100604.97
2022-08-17T18:24:10.711Z,100601.38
2022-08-17T18:27:02.709Z,100593.44
2022-08-17T18:29:49.826Z,100597.13
2022-08-17T18:32:30.494Z,100599.72
2022-08-17T18:35:01.951Z,100601.28
2022-08-17T18:37:45.014Z,100603.03
2022-08-17T18:40:30.356Z,100616.69
2022-08-17T18:43:05.275Z,100622.78
2022-08-17T18:45:40.948Z,100619.78
2022-08-17T18:48:24.453Z,100626.13
2022-08-17T18:50:55.086Z,100620.63
2022-08-17T18:53:34.382Z,100614.59
2022-08-17T18:56:25.020Z,100617.66
2022-08-17T18:59:02.118Z,100612.41
2022-08-17T19:01:41.687Z,100622.47
2022-08-17T19:04:34.827Z,100617.22
2022-08-17T19:07:07.809Z,100624.16
2022-08-17T19:09:39.648Z,100622.41
2022-08-17T19:12:14.492Z,100627.13
2022-08-17T19:14:44.825Z,100628.88
2022-08-17T19:17:23.521Z,100624.47
2022-08-17T19:19:57.739Z,100627.28
2022-08-17T19:22:31.265Z,100621.78
2022-08-17T19:25:12.023Z,100622.72
2022-08-17T19:27:51.148Z,100623.38
2022-08-17T19:30:28.011Z,100615.44
2022-08-17T19:32:59.421Z,100617.19
2022-08-17T19:35:39.425Z,100618.94
2022-08-17T19:38:13.937Z,100626.91
2022-08-17T19:40:59.281Z,100610.88
2022-08-17T19:43:47.355Z,100604.31
2022-08-17T19:46:26.378Z,100612.25
2022-08-17T19:49:06.953Z,100615.66
2022-08-17T19:51:45.596Z,100613.69
2022-08-17T19:54:22.955Z,100610.03
2022-08-17T19:57:01.772Z,100609.66
2022-08-17T19:59:50.552Z,100608.72
2022-08-17T20:02:32.038Z,100617.69
2022-08-17T20:05:03.783Z,100611.34
2022-08-17T20:07:42.812Z,100610.41
2022-08-17T20:10:21.544Z,100613.78
2022-08-17T20:12:53.288Z,100605.59
2022-08-17T20:15:29.861Z,100608.97
2022-08-17T20:18:03.768Z,100607.81
2022-08-17T20:20:43.714Z,100607.66
2022-08-17T20:23:33.291Z,100608.13
2022-08-17T20:26:18.477Z,100611.25
2022-08-17T20:29:10.801Z,100614.63
2022-08-17T20:31:45.626Z,100611.34
2022-08-17T20:34:38.111Z,100604.16
2022-08-17T20:37:09.398Z,100606.25
2022-08-17T20:39:40.606Z,100604.25
2022-08-17T20:42:30.394Z,100596.88
2022-08-17T20:45:02.313Z,100600.00
2022-08-17T20:47:33.303Z,100605.00
2022-08-17T20:50:06.887Z,100596.38
2022-08-17T20:52:54.311Z,100602.41
2022-08-17T20:55:53.046Z,100601.00
2022-08-17T20:58:47.175Z,100600.66
2022-08-17T21:01:36.957Z,100609.16
2022-08-17T21:04:09.518Z,100608.53
2022-08-17T21:07:21.482Z,100602.78
2022-08-17T21:09:49.431Z,100609.22
2022-08-17T21:12:41.029Z,100612.00
2022-08-17T21:15:23.125Z,100611.00
2022-08-17T21:18:02.359Z,100610.25
2022-08-17T21:20:37.089Z,100607.63
2022-08-17T21:23:18.749Z,100608.06
2022-08-17T21:26:30.236Z,100618.44
2022-08-17T21:29:31.270Z,100612.66
2022-08-17T21:32:21.062Z,100624.25
2022-08-17T21:35:28.821Z,100626.34
2022-08-17T21:38:03.800Z,100624.47
2022-08-17T21:40:35.056Z,100626.34
2022-08-17T21:43:23.713Z,100624.69
2022-08-17T21:46:02.459Z,100623.03
2022-08-17T21:48:32.549Z,100628.38
2022-08-17T21:51:10.575Z,100622.44
2022-08-17T21:53:44.286Z,100619.16
2022-08-17T21:56:25.642Z,100626.84
2022-08-17T21:59:00.375Z,100623.31
2022-08-17T22:01:31.692Z,100630.97
2022-08-17T22:04:04.489Z,100631.19
2022-08-17T22:06:38.192Z,100630.59
2022-08-17T22:09:13.945Z,100626.50
2022-08-17T22:12:00.446Z,100629.38
2022-08-17T22:14:52.648Z,100634.16
2022-08-17T22:17:23.826Z,100631.09
2022-08-17T22:19:54.879Z,100635.88
2022-08-17T22:22:31.153Z,100636.53
2022-08-17T22:25:02.582Z,100639.63
2022-08-17T22:27:49.307Z,100637.38
2022-08-17T22:30:34.486Z,100634.13
2022-08-17T22:33:32.641Z,100643.38
2022-08-17T22:36:25.286Z,100643.63
2022-08-17T22:38:56.234Z,100640.31
2022-08-17T22:41:41.343Z,100642.81
2022-08-17T22:44:17.358Z,100636.88
2022-08-17T22:47:02.021Z,100637.28
2022-08-17T22:49:38.513Z,100643.09
2022-08-17T22:52:56.167Z,100641.06
2022-08-17T22:55:42.609Z,100646.84
2022-08-17T22:58:29.717Z,100639.47
2022-08-17T23:00:57.364Z,100640.94
2022-08-17T23:03:28.027Z,100641.34
2022-08-17T23:06:06.616Z,100641.41
2022-08-17T23:08:37.046Z,100634.63
2022-08-17T23:11:06.847Z,100634.44
2022-08-17T23:13:34.418Z,100627.84
2022-08-17T23:16:02.761Z,100640.06
2022-08-17T23:18:30.346Z,100644.38
2022-08-17T23:20:57.903Z,100643.59
2022-08-17T23:23:27.469Z,100639.88
2022-08-17T23:25:55.402Z,100639.91
2022-08-17T23:28:23.132Z,100637.66
2022-08-17T23:30:50.907Z,100647.16
2022-08-17T23:33:22.186Z,100638.94
2022-08-17T23:35:49.821Z,100632.34
2022-08-17T23:38:17.366Z,100636.50
2022-08-17T23:40:46.623Z,100638.78
2022-08-17T23:43:24.560Z,100634.66
2022-08-17T23:45:54.006Z,100632.41
2022-08-17T23:48:35.115Z,100632.00
2022-08-17T23:51:05.784Z,100622.75
2022-08-17T23:53:36.564Z,100626.66
2022-08-17T23:56:10.493Z,100625.22
2022-08-17T23:58:39.154Z,100618.44
